Time;durP1;ratioP1;P1;durP2;ratioP2;P2;SDS_P1;SDS_P2;PMS_P1;PMS_P2;Temp;Humidity;BMP_temperature;BMP_pressure;BME280_temperature;BME280_humidity;BME280_pressure;Samples;Min_cycle;Max_cycle;Signal;HPM_P1;HPM_P2
2021/11/05 00:00:12;;;;;;;28.95;12.80;;;;;;;;;;5098096;28;20023;-68
2021/11/05 00:02:39;;;;;;;24.85;13.05;;;;;;;;;;5115895;28;20049;-69
2021/11/05 00:05:05;;;;;;;25.88;12.77;;;;;;;;;;5116105;28;20067;-69
2021/11/05 00:07:31;;;;;;;27.80;12.38;;;;;;;;;;5097866;28;20065;-70
2021/11/05 00:09:57;;;;;;;23.90;13.02;;;;;;;;;;5115858;28;20032;-68
2021/11/05 00:12:23;;;;;;;22.98;11.90;;;;;;;;;;5115685;28;20026;-67
2021/11/05 00:14:49;;;;;;;24.88;11.88;;;;;;;;;;5115961;28;20185;-68
2021/11/05 00:17:16;;;;;;;25.23;10.82;;;;;;;;;;5115833;28;20390;-69
2021/11/05 00:19:42;;;;;;;22.05;10.25;;;;;;;;;;5115568;27;20051;-69
2021/11/05 00:22:11;;;;;;;22.17;10.95;;;;;;;;;;5115616;28;20031;-67
2021/11/05 00:24:37;;;;;;;23.75;10.70;;;;;;;;;;5097277;28;20080;-69
2021/11/05 00:27:03;;;;;;;22.85;10.02;;;;;;;;;;5080411;28;20362;-70
2021/11/05 00:29:29;;;;;;;23.27;10.25;;;;;;;;;;5114885;28;20028;-69
2021/11/05 00:31:56;;;;;;;25.73;10.35;;;;;;;;;;5115524;28;20024;-69
2021/11/05 00:34:22;;;;;;;25.92;10.38;;;;;;;;;;5115558;28;20383;-70
2021/11/05 00:37:01;;;;;;;21.42;10.23;;;;;;;;;;5115152;27;20038;-69
2021/11/05 00:39:27;;;;;;;18.80;9.20;;;;;;;;;;5115952;28;20066;-70
2021/11/05 00:41:53;;;;;;;17.95;9.35;;;;;;;;;;5111273;27;20019;-68
2021/11/05 00:44:19;;;;;;;24.48;9.57;;;;;;;;;;5138110;27;20023;-66
2021/11/05 00:46:46;;;;;;;34.97;9.23;;;;;;;;;;5157119;27;20147;-69
2021/11/05 00:49:12;;;;;;;19.63;9.77;;;;;;;;;;5156920;27;20051;-68
2021/11/05 00:51:38;;;;;;;19.33;8.98;;;;;;;;;;5156402;27;20038;-71
2021/11/05 00:54:04;;;;;;;23.83;8.82;;;;;;;;;;5132583;27;20019;-69
2021/11/05 00:56:30;;;;;;;23.50;8.45;;;;;;;;;;5117581;27;20060;-71
2021/11/05 00:58:56;;;;;;;20.52;8.43;;;;;;;;;;5117357;27;20074;-65
2021/11/05 01:01:22;;;;;;;16.50;7.82;;;;;;;;;;5135266;27;20027;-65
2021/11/05 01:03:48;;;;;;;17.27;7.63;;;;;;;;;;5135455;27;20377;-66
2021/11/05 01:06:14;;;;;;;20.75;7.55;;;;;;;;;;5135557;27;20019;-70
2021/11/05 01:08:41;;;;;;;25.92;7.65;;;;;;;;;;5134825;27;20042;-66
2021/11/05 01:11:06;;;;;;;23.90;7.13;;;;;;;;;;5133761;27;20397;-66
2021/11/05 01:13:32;;;;;;;21.23;6.70;;;;;;;;;;5134290;27;20402;-65
2021/11/05 01:15:58;;;;;;;30.08;7.22;;;;;;;;;;5134709;27;20023;-67
2021/11/05 01:18:25;;;;;;;22.52;6.53;;;;;;;;;;5134372;27;20039;-67
2021/11/05 01:20:51;;;;;;;28.27;6.18;;;;;;;;;;5134708;27;20404;-68
2021/11/05 01:23:19;;;;;;;24.45;5.85;;;;;;;;;;5135162;27;20526;-66
2021/11/05 01:25:45;;;;;;;23.67;5.55;;;;;;;;;;5133951;27;20031;-66
2021/11/05 01:28:11;;;;;;;27.42;6.65;;;;;;;;;;5135068;27;20023;-70
2021/11/05 01:30:37;;;;;;;28.20;6.55;;;;;;;;;;5116549;27;20042;-69
2021/11/05 01:33:07;;;;;;;19.17;5.45;;;;;;;;;;5135226;27;20023;-70
2021/11/05 01:35:33;;;;;;;18.83;6.40;;;;;;;;;;5135066;27;20050;-66
2021/11/05 01:37:59;;;;;;;20.83;5.93;;;;;;;;;;5135152;27;20029;-67
2021/11/05 01:40:25;;;;;;;14.98;5.25;;;;;;;;;;5134073;27;20023;-65
2021/11/05 01:42:51;;;;;;;20.15;5.65;;;;;;;;;;5107959;28;20024;-69
2021/11/05 01:45:20;;;;;;;16.80;5.45;;;;;;;;;;5114181;28;20024;-68
2021/11/05 01:47:46;;;;;;;19.83;5.38;;;;;;;;;;5114452;28;20016;-69
2021/11/05 01:50:13;;;;;;;18.05;5.07;;;;;;;;;;5114029;28;20037;-68
2021/11/05 01:52:40;;;;;;;16.27;5.45;;;;;;;;;;5114091;28;20502;-72
2021/11/05 01:55:06;;;;;;;30.17;5.88;;;;;;;;;;5114272;28;20076;-68
2021/11/05 01:57:32;;;;;;;18.27;4.45;;;;;;;;;;5114152;28;20020;-70
2021/11/05 01:59:58;;;;;;;17.98;5.40;;;;;;;;;;5119287;27;20027;-68
2021/11/05 02:02:24;;;;;;;12.30;4.88;;;;;;;;;;5134546;27;20461;-66
2021/11/05 02:04:50;;;;;;;15.23;4.50;;;;;;;;;;5134567;27;20479;-69
2021/11/05 02:07:16;;;;;;;11.13;4.60;;;;;;;;;;5116005;28;20118;-73
2021/11/05 02:09:43;;;;;;;14.52;4.43;;;;;;;;;;5134438;27;20114;-73
2021/11/05 02:12:09;;;;;;;14.88;4.80;;;;;;;;;;5134529;27;20020;-68
2021/11/05 02:14:35;;;;;;;8.90;4.00;;;;;;;;;;5134067;27;20750;-65
2021/11/05 02:17:03;;;;;;;11.25;4.03;;;;;;;;;;5133504;27;20102;-67
2021/11/05 02:19:31;;;;;;;7.38;3.53;;;;;;;;;;5134383;27;20035;-71
2021/11/05 02:21:58;;;;;;;9.07;4.25;;;;;;;;;;5134345;27;20104;-70
2021/11/05 02:24:25;;;;;;;7.30;3.65;;;;;;;;;;5133946;27;20093;-68
2021/11/05 02:26:53;;;;;;;10.45;3.88;;;;;;;;;;5134105;27;20031;-70
2021/11/05 02:29:20;;;;;;;14.00;3.70;;;;;;;;;;5115711;28;20540;-71
2021/11/05 02:31:46;;;;;;;6.80;3.58;;;;;;;;;;5133059;27;20128;-66
2021/11/05 02:34:12;;;;;;;6.25;3.30;;;;;;;;;;5134212;28;20094;-70
2021/11/05 02:36:39;;;;;;;12.95;3.42;;;;;;;;;;5134164;28;20110;-66
2021/11/05 02:39:08;;;;;;;9.52;3.17;;;;;;;;;;5133914;28;20511;-71
2021/11/05 02:41:35;;;;;;;8.23;3.63;;;;;;;;;;5138417;27;20022;-70
2021/11/05 02:44:01;;;;;;;9.98;3.28;;;;;;;;;;5136063;27;20034;-66
2021/11/05 02:46:27;;;;;;;6.80;3.40;;;;;;;;;;5154612;27;20030;-69
2021/11/05 02:48:56;;;;;;;5.88;3.17;;;;;;;;;;5114113;28;20023;-71
2021/11/05 02:51:22;;;;;;;6.50;2.90;;;;;;;;;;5113342;28;20066;-68
2021/11/05 02:53:48;;;;;;;9.77;3.20;;;;;;;;;;5098575;28;20398;-66
2021/11/05 02:56:14;;;;;;;8.70;3.00;;;;;;;;;;5117112;28;20073;-67
2021/11/05 02:58:40;;;;;;;7.60;3.03;;;;;;;;;;5099209;28;20040;-68
2021/11/05 03:01:06;;;;;;;8.05;3.25;;;;;;;;;;5117220;28;20045;-64
2021/11/05 03:03:32;;;;;;;6.25;2.60;;;;;;;;;;5117405;28;20027;-69
2021/11/05 03:05:58;;;;;;;7.03;3.00;;;;;;;;;;5137266;27;20039;-68
2021/11/05 03:08:24;;;;;;;8.93;2.85;;;;;;;;;;5137638;27;20024;-66
2021/11/05 03:10:50;;;;;;;5.82;2.83;;;;;;;;;;5137531;27;20042;-63
2021/11/05 03:13:16;;;;;;;4.78;2.17;;;;;;;;;;5138140;27;20499;-64
2021/11/05 03:15:42;;;;;;;8.35;2.88;;;;;;;;;;5137528;27;20035;-68
2021/11/05 03:18:08;;;;;;;3.75;2.20;;;;;;;;;;5137321;27;20080;-68
2021/11/05 03:20:35;;;;;;;3.97;2.05;;;;;;;;;;5136345;27;20062;-68
2021/11/05 03:23:01;;;;;;;4.40;1.92;;;;;;;;;;5137824;27;20106;-68
2021/11/05 03:25:27;;;;;;;6.22;2.38;;;;;;;;;;5137286;27;20057;-67
2021/11/05 03:27:53;;;;;;;3.03;1.77;;;;;;;;;;5137260;27;20044;-64
2021/11/05 03:30:19;;;;;;;4.90;2.13;;;;;;;;;;5118941;27;20035;-64
2021/11/05 03:32:46;;;;;;;5.03;1.85;;;;;;;;;;5137296;27;20035;-67
2021/11/05 03:35:12;;;;;;;4.70;2.10;;;;;;;;;;5137615;27;20106;-67
2021/11/05 03:37:39;;;;;;;3.47;2.03;;;;;;;;;;5135228;27;20041;-69
2021/11/05 03:40:06;;;;;;;4.03;1.77;;;;;;;;;;5116631;28;20028;-67
2021/11/05 03:42:32;;;;;;;7.15;2.13;;;;;;;;;;5117567;28;20024;-70
2021/11/05 03:44:58;;;;;;;6.82;1.80;;;;;;;;;;5117008;28;20046;-65
2021/11/05 03:47:24;;;;;;;3.45;2.00;;;;;;;;;;5117611;28;20102;-67
2021/11/05 03:49:50;;;;;;;4.85;1.77;;;;;;;;;;5116726;28;20032;-65
2021/11/05 03:52:16;;;;;;;5.40;1.63;;;;;;;;;;5098992;28;20036;-65
2021/11/05 03:54:43;;;;;;;6.68;2.17;;;;;;;;;;5117250;28;20024;-70
2021/11/05 03:57:09;;;;;;;5.45;1.60;;;;;;;;;;5098759;28;20092;-66
2021/11/05 03:59:35;;;;;;;11.18;1.80;;;;;;;;;;5098665;28;20463;-67
2021/11/05 04:02:01;;;;;;;4.85;1.42;;;;;;;;;;5117056;28;20031;-68
2021/11/05 04:04:27;;;;;;;6.13;1.60;;;;;;;;;;5116072;28;20130;-68
2021/11/05 04:06:53;;;;;;;6.57;1.70;;;;;;;;;;5098536;28;20533;-64
2021/11/05 04:09:19;;;;;;;2.80;1.55;;;;;;;;;;5116756;28;20016;-65
2021/11/05 04:11:45;;;;;;;5.80;1.75;;;;;;;;;;5116485;28;20039;-67
2021/11/05 04:14:11;;;;;;;5.63;1.40;;;;;;;;;;5116015;27;20031;-68
2021/11/05 04:16:37;;;;;;;6.70;1.80;;;;;;;;;;5116810;28;20031;-68
2021/11/05 04:19:04;;;;;;;5.22;1.70;;;;;;;;;;5116420;28;20047;-69
2021/11/05 04:21:30;;;;;;;6.15;1.50;;;;;;;;;;5098435;28;20027;-64
2021/11/05 04:23:56;;;;;;;2.67;1.30;;;;;;;;;;5116660;28;20051;-64
2021/11/05 04:26:22;;;;;;;3.78;1.45;;;;;;;;;;5116871;28;20046;-65
2021/11/05 04:28:48;;;;;;;5.75;1.92;;;;;;;;;;5103789;28;20030;-70
2021/11/05 04:31:14;;;;;;;7.25;1.30;;;;;;;;;;5098012;28;20069;-69
2021/11/05 04:33:40;;;;;;;9.00;1.60;;;;;;;;;;5097801;28;20031;-65
2021/11/05 04:36:07;;;;;;;11.25;1.15;;;;;;;;;;5116041;28;20451;-67
2021/11/05 04:38:33;;;;;;;6.50;1.40;;;;;;;;;;5116129;28;20043;-68
2021/11/05 04:40:59;;;;;;;5.07;1.60;;;;;;;;;;5097557;28;20522;-66
2021/11/05 04:43:25;;;;;;;9.95;1.70;;;;;;;;;;5116202;28;20026;-65
2021/11/05 04:45:51;;;;;;;5.07;1.35;;;;;;;;;;5127158;27;20027;-66
2021/11/05 04:48:18;;;;;;;9.07;1.40;;;;;;;;;;5136097;27;20023;-66
2021/11/05 04:50:44;;;;;;;10.30;1.55;;;;;;;;;;5117351;27;20045;-67
2021/11/05 04:53:10;;;;;;;3.70;1.45;;;;;;;;;;5136461;27;20456;-67
2021/11/05 04:55:36;;;;;;;5.75;1.35;;;;;;;;;;5136481;27;20457;-67
2021/11/05 04:58:03;;;;;;;3.17;1.25;;;;;;;;;;5136304;27;20046;-68
2021/11/05 05:00:30;;;;;;;9.20;1.67;;;;;;;;;;5136083;27;20038;-66
2021/11/05 05:02:56;;;;;;;5.05;1.20;;;;;;;;;;5135990;27;20463;-68
2021/11/05 05:05:24;;;;;;;2.30;1.40;;;;;;;;;;5136403;27;20056;-68
2021/11/05 05:07:50;;;;;;;3.88;1.15;;;;;;;;;;5136009;27;20026;-66
2021/11/05 05:10:16;;;;;;;3.45;1.00;;;;;;;;;;5136026;27;20038;-66
2021/11/05 05:12:42;;;;;;;4.32;1.30;;;;;;;;;;5136556;27;20027;-69
2021/11/05 05:15:09;;;;;;;4.60;1.23;;;;;;;;;;5135946;27;20039;-70
2021/11/05 05:17:36;;;;;;;5.78;1.35;;;;;;;;;;5136447;27;20042;-68
2021/11/05 05:20:03;;;;;;;5.38;1.20;;;;;;;;;;5134970;27;20047;-68
2021/11/05 05:22:29;;;;;;;6.72;0.98;;;;;;;;;;5117781;27;20492;-69
2021/11/05 05:24:55;;;;;;;6.68;1.35;;;;;;;;;;5134846;27;20098;-66
2021/11/05 05:27:21;;;;;;;6.97;1.40;;;;;;;;;;5135423;27;20029;-66
2021/11/05 05:29:47;;;;;;;2.75;1.15;;;;;;;;;;5135565;27;20031;-66
2021/11/05 05:32:14;;;;;;;6.90;1.10;;;;;;;;;;5135524;27;20459;-69
2021/11/05 05:34:40;;;;;;;3.60;1.20;;;;;;;;;;5125367;27;20027;-66
2021/11/05 05:37:06;;;;;;;3.95;1.00;;;;;;;;;;5115351;28;20047;-65
2021/11/05 05:39:32;;;;;;;5.47;1.20;;;;;;;;;;5096646;28;20062;-66
2021/11/05 05:41:58;;;;;;;8.90;1.38;;;;;;;;;;5129703;27;20022;-68
2021/11/05 05:44:24;;;;;;;3.35;1.00;;;;;;;;;;5156270;27;20529;-66
2021/11/05 05:46:50;;;;;;;8.25;1.50;;;;;;;;;;5155725;27;20109;-66
2021/11/05 05:49:16;;;;;;;2.75;0.98;;;;;;;;;;5136745;27;20019;-70
2021/11/05 05:51:46;;;;;;;5.65;0.95;;;;;;;;;;5110673;27;20085;-68
2021/11/05 05:54:12;;;;;;;2.80;0.90;;;;;;;;;;5113755;28;20031;-66
2021/11/05 05:56:39;;;;;;;6.75;1.10;;;;;;;;;;5113714;28;20032;-69
2021/11/05 05:59:05;;;;;;;4.57;1.20;;;;;;;;;;5113820;28;20533;-67
2021/11/05 06:01:31;;;;;;;2.47;0.93;;;;;;;;;;5113558;28;20073;-66
2021/11/05 06:04:01;;;;;;;4.13;0.65;;;;;;;;;;5113787;28;20054;-68
2021/11/05 06:06:28;;;;;;;4.53;1.30;;;;;;;;;;5117029;27;20031;-66
2021/11/05 06:08:54;;;;;;;1.98;0.80;;;;;;;;;;5134635;27;20044;-65
2021/11/05 06:11:21;;;;;;;3.38;1.00;;;;;;;;;;5134066;27;20060;-68
2021/11/05 06:13:47;;;;;;;3.10;0.95;;;;;;;;;;5115993;27;20382;-69
2021/11/05 06:16:13;;;;;;;4.82;0.80;;;;;;;;;;5133868;27;20758;-68
2021/11/05 06:18:39;;;;;;;6.32;0.82;;;;;;;;;;5133991;27;20051;-65
2021/11/05 06:21:05;;;;;;;1.92;0.80;;;;;;;;;;5115510;27;20023;-66
2021/11/05 06:23:31;;;;;;;4.93;1.00;;;;;;;;;;5122716;27;20034;-65
2021/11/05 06:25:57;;;;;;;3.58;0.93;;;;;;;;;;5113355;28;20031;-65
2021/11/05 06:28:25;;;;;;;1.50;0.75;;;;;;;;;;5113410;28;20080;-67
2021/11/05 06:30:51;;;;;;;3.92;0.90;;;;;;;;;;5094972;28;20391;-67
2021/11/05 06:33:18;;;;;;;4.53;0.80;;;;;;;;;;5113620;28;20023;-65
2021/11/05 06:35:45;;;;;;;13.32;1.30;;;;;;;;;;5094989;28;20110;-66
2021/11/05 06:38:12;;;;;;;7.78;1.00;;;;;;;;;;5113411;28;20027;-66
2021/11/05 06:40:38;;;;;;;7.60;0.90;;;;;;;;;;5103455;28;20023;-66
2021/11/05 06:43:05;;;;;;;6.82;0.80;;;;;;;;;;5146155;27;20027;-66
2021/11/05 06:45:31;;;;;;;6.60;1.27;;;;;;;;;;5136099;27;20027;-70
2021/11/05 06:47:57;;;;;;;9.90;1.20;;;;;;;;;;5136310;27;20027;-65
2021/11/05 06:50:23;;;;;;;7.93;1.10;;;;;;;;;;5135830;27;20030;-66
2021/11/05 06:52:49;;;;;;;15.30;1.10;;;;;;;;;;5154625;27;20026;-64
2021/11/05 06:55:15;;;;;;;12.48;0.80;;;;;;;;;;5154487;27;20019;-65
2021/11/05 06:57:41;;;;;;;15.05;0.93;;;;;;;;;;5146800;27;20024;-65
2021/11/05 07:00:09;;;;;;;11.55;0.98;;;;;;;;;;5114855;28;20433;-64
2021/11/05 07:02:40;;;;;;;19.98;1.10;;;;;;;;;;5135711;27;20023;-66
2021/11/05 07:05:07;;;;;;;17.70;1.75;;;;;;;;;;5136230;27;20043;-66
2021/11/05 07:07:33;;;;;;;32.80;1.70;;;;;;;;;;5114572;28;20015;-64
2021/11/05 07:09:58;;;;;;;49.85;2.42;;;;;;;;;;5133221;28;20041;-64
2021/11/05 07:12:24;;;;;;;63.13;1.80;;;;;;;;;;5115028;28;20153;-78
2021/11/05 07:14:50;;;;;;;51.80;1.63;;;;;;;;;;5133760;27;20393;-64
2021/11/05 07:17:16;;;;;;;35.15;1.95;;;;;;;;;;5114770;28;20031;-66
2021/11/05 07:19:42;;;;;;;31.60;1.85;;;;;;;;;;5114654;28;20035;-64
2021/11/05 07:22:08;;;;;;;34.55;1.45;;;;;;;;;;5133200;28;20024;-65
2021/11/05 07:24:36;;;;;;;21.85;1.98;;;;;;;;;;5114837;28;20034;-66
2021/11/05 07:27:03;;;;;;;30.88;1.35;;;;;;;;;;5132962;28;20034;-65
2021/11/05 07:29:31;;;;;;;10.07;1.35;;;;;;;;;;5133162;28;20025;-64
2021/11/05 07:31:58;;;;;;;11.95;1.10;;;;;;;;;;5131691;27;20043;-63
2021/11/05 07:34:25;;;;;;;10.93;1.17;;;;;;;;;;5131685;27;20026;-64
2021/11/05 07:36:51;;;;;;;11.25;1.40;;;;;;;;;;5133061;27;20020;-64
2021/11/05 07:39:17;;;;;;;9.93;1.10;;;;;;;;;;5133482;27;20042;-63
2021/11/05 07:41:43;;;;;;;11.75;1.20;;;;;;;;;;5117643;27;20355;-63
2021/11/05 07:44:09;;;;;;;9.32;1.00;;;;;;;;;;5136127;27;20032;-63
2021/11/05 07:46:35;;;;;;;8.68;1.00;;;;;;;;;;5117657;27;20129;-64
2021/11/05 07:49:01;;;;;;;9.07;0.82;;;;;;;;;;5135176;27;20180;-64
2021/11/05 07:51:28;;;;;;;5.05;1.00;;;;;;;;;;5136464;27;20421;-64
2021/11/05 07:53:54;;;;;;;9.80;1.05;;;;;;;;;;5136886;27;20019;-64
2021/11/05 07:56:20;;;;;;;5.40;0.98;;;;;;;;;;5136402;27;20038;-65
2021/11/05 07:58:46;;;;;;;8.82;1.13;;;;;;;;;;5136474;27;20048;-64
2021/11/05 08:01:12;;;;;;;7.20;1.20;;;;;;;;;;5136137;27;20102;-62
2021/11/05 08:03:38;;;;;;;9.73;1.08;;;;;;;;;;5136184;27;20021;-62
2021/11/05 08:06:04;;;;;;;13.55;1.38;;;;;;;;;;5135163;27;20111;-62
2021/11/05 08:08:31;;;;;;;5.80;1.05;;;;;;;;;;5136320;27;20068;-63
2021/11/05 08:10:57;;;;;;;7.35;1.48;;;;;;;;;;5136002;27;20084;-62
2021/11/05 08:13:23;;;;;;;9.18;1.10;;;;;;;;;;5136215;27;20027;-62
2021/11/05 08:15:49;;;;;;;8.05;0.80;;;;;;;;;;5136201;27;20031;-63
2021/11/05 08:18:15;;;;;;;10.93;1.10;;;;;;;;;;5117281;27;20035;-63
2021/11/05 08:20:44;;;;;;;10.93;1.02;;;;;;;;;;5125206;27;20027;-63
2021/11/05 08:23:10;;;;;;;7.63;1.42;;;;;;;;;;5120755;27;20031;-66
2021/11/05 08:25:36;;;;;;;17.00;1.40;;;;;;;;;;5134583;27;20088;-64
2021/11/05 08:28:03;;;;;;;9.10;1.25;;;;;;;;;;5116517;27;20034;-63
2021/11/05 08:30:29;;;;;;;11.48;1.10;;;;;;;;;;5134379;27;20031;-64
2021/11/05 08:32:57;;;;;;;10.25;1.40;;;;;;;;;;5133863;27;20129;-63
2021/11/05 08:35:26;;;;;;;13.10;1.30;;;;;;;;;;5134547;27;20102;-63
2021/11/05 08:37:52;;;;;;;5.25;1.25;;;;;;;;;;5133051;27;20037;-63
2021/11/05 08:40:18;;;;;;;11.20;1.38;;;;;;;;;;5134342;27;20062;-63
2021/11/05 08:42:45;;;;;;;10.15;1.40;;;;;;;;;;5116264;27;20019;-63
2021/11/05 08:45:11;;;;;;;20.23;1.08;;;;;;;;;;5135786;27;20027;-62
2021/11/05 08:47:40;;;;;;;31.48;1.10;;;;;;;;;;5135422;27;20023;-63
2021/11/05 08:50:08;;;;;;;16.42;1.30;;;;;;;;;;5134725;27;20019;-63
2021/11/05 08:52:34;;;;;;;11.25;1.20;;;;;;;;;;5135342;27;20118;-62
2021/11/05 08:55:05;;;;;;;15.88;1.38;;;;;;;;;;5130517;27;20094;-63
2021/11/05 08:57:31;;;;;;;36.80;1.45;;;;;;;;;;5132097;27;20062;-63
2021/11/05 08:59:57;;;;;;;33.72;1.95;;;;;;;;;;5135544;27;20019;-63
2021/11/05 09:02:23;;;;;;;23.30;2.13;;;;;;;;;;5135111;27;20034;-64
2021/11/05 09:04:49;;;;;;;15.05;1.45;;;;;;;;;;5136837;27;20039;-63
2021/11/05 09:07:15;;;;;;;27.65;2.30;;;;;;;;;;5134824;27;20034;-62
2021/11/05 09:09:42;;;;;;;21.48;1.50;;;;;;;;;;5136019;27;20046;-65
2021/11/05 09:12:08;;;;;;;17.15;2.28;;;;;;;;;;5132877;27;20039;-62
2021/11/05 09:14:34;;;;;;;19.55;1.52;;;;;;;;;;5133762;27;20030;-62
2021/11/05 09:17:00;;;;;;;10.98;1.30;;;;;;;;;;5134168;27;20113;-61
2021/11/05 09:19:26;;;;;;;17.95;1.33;;;;;;;;;;5134422;27;20039;-62
2021/11/05 09:21:52;;;;;;;12.80;1.80;;;;;;;;;;5134570;27;20027;-61
2021/11/05 09:24:18;;;;;;;10.75;1.15;;;;;;;;;;5134725;27;20027;-61
2021/11/05 09:26:44;;;;;;;8.07;1.23;;;;;;;;;;5134500;27;20091;-62
2021/11/05 09:29:10;;;;;;;13.20;1.40;;;;;;;;;;5122298;27;20392;-62
2021/11/05 09:31:36;;;;;;;13.43;1.10;;;;;;;;;;5113993;28;20115;-61
2021/11/05 09:34:02;;;;;;;7.68;1.30;;;;;;;;;;5114584;28;20031;-61
2021/11/05 09:36:28;;;;;;;8.52;1.15;;;;;;;;;;5114512;28;20027;-62
2021/11/05 09:38:56;;;;;;;7.63;1.58;;;;;;;;;;5114071;28;20026;-62
2021/11/05 09:41:22;;;;;;;6.97;1.33;;;;;;;;;;5100596;27;20028;-62
2021/11/05 09:43:48;;;;;;;3.95;1.10;;;;;;;;;;5136816;27;20015;-61
2021/11/05 09:46:14;;;;;;;12.32;1.35;;;;;;;;;;5142759;27;20076;-62
2021/11/05 09:48:41;;;;;;;8.55;1.13;;;;;;;;;;5134716;27;20019;-61
2021/11/05 09:51:09;;;;;;;6.05;1.10;;;;;;;;;;5116103;27;20035;-63
2021/11/05 09:53:38;;;;;;;5.97;1.20;;;;;;;;;;5134113;27;20042;-62
2021/11/05 09:56:06;;;;;;;4.57;0.95;;;;;;;;;;5134219;27;20075;-62
2021/11/05 09:58:37;;;;;;;4.40;1.15;;;;;;;;;;5134072;27;20475;-62
2021/11/05 10:01:03;;;;;;;4.90;0.90;;;;;;;;;;5133481;27;20096;-62
2021/11/05 10:03:30;;;;;;;1.88;0.82;;;;;;;;;;5133378;27;20023;-62
2021/11/05 10:05:56;;;;;;;6.82;1.15;;;;;;;;;;5134660;27;20026;-62
2021/11/05 10:08:31;;;;;;;3.15;0.80;;;;;;;;;;5133825;27;20477;-62
2021/11/05 10:10:58;;;;;;;6.03;1.30;;;;;;;;;;5133852;27;20109;-62
2021/11/05 10:13:25;;;;;;;8.38;1.00;;;;;;;;;;5134077;27;20043;-63
2021/11/05 10:15:52;;;;;;;11.68;0.95;;;;;;;;;;5132990;27;20103;-63
2021/11/05 10:18:20;;;;;;;5.03;1.00;;;;;;;;;;5094597;28;20032;-63
2021/11/05 10:20:48;;;;;;;4.03;0.98;;;;;;;;;;5113239;28;20131;-62
2021/11/05 10:23:16;;;;;;;2.90;0.88;;;;;;;;;;5113217;28;20024;-63
2021/11/05 10:25:45;;;;;;;2.70;0.90;;;;;;;;;;5113440;28;20103;-63
2021/11/05 10:28:11;;;;;;;3.55;0.80;;;;;;;;;;5113324;28;20039;-63
2021/11/05 10:30:50;;;;;;;2.97;0.80;;;;;;;;;;5112962;28;20081;-63
2021/11/05 10:33:17;;;;;;;5.05;0.90;;;;;;;;;;5114793;28;20031;-63
2021/11/05 10:35:45;;;;;;;3.00;0.80;;;;;;;;;;5133919;27;20110;-63
2021/11/05 10:38:12;;;;;;;2.03;0.68;;;;;;;;;;5115010;28;20034;-62
2021/11/05 10:40:57;;;;;;;6.50;0.93;;;;;;;;;;5133878;28;20114;-63
2021/11/05 10:43:35;;;;;;;2.75;0.90;;;;;;;;;;5153641;27;20023;-63
2021/11/05 10:46:01;;;;;;;3.63;0.68;;;;;;;;;;5154366;27;20450;-63
2021/11/05 10:48:30;;;;;;;2.08;0.73;;;;;;;;;;5153953;27;20478;-66
2021/11/05 10:50:57;;;;;;;2.80;0.80;;;;;;;;;;5113431;27;20035;-64
2021/11/05 10:53:24;;;;;;;1.10;0.60;;;;;;;;;;5112794;28;20028;-64
2021/11/05 10:55:50;;;;;;;4.18;0.77;;;;;;;;;;5112948;28;20115;-66
2021/11/05 10:58:18;;;;;;;2.60;0.70;;;;;;;;;;5112730;28;20432;-66
2021/11/05 11:00:44;;;;;;;3.80;0.80;;;;;;;;;;5112888;28;20024;-68
2021/11/05 11:03:14;;;;;;;3.13;0.70;;;;;;;;;;5112627;28;20445;-66
2021/11/05 11:05:43;;;;;;;1.52;0.60;;;;;;;;;;5113168;28;20020;-66
2021/11/05 11:08:10;;;;;;;2.25;0.65;;;;;;;;;;5129375;28;20027;-68
2021/11/05 11:10:38;;;;;;;6.18;0.70;;;;;;;;;;5133295;28;20035;-64
2021/11/05 11:13:05;;;;;;;5.95;0.77;;;;;;;;;;5133828;27;20023;-65
2021/11/05 11:15:31;;;;;;;9.20;0.75;;;;;;;;;;5118662;27;20347;-65
2021/11/05 11:17:57;;;;;;;10.55;0.85;;;;;;;;;;5118324;27;20791;-64
2021/11/05 11:20:37;;;;;;;7.90;0.85;;;;;;;;;;5118572;27;20122;-63
2021/11/05 11:23:04;;;;;;;15.65;1.02;;;;;;;;;;5131803;27;20141;-62
2021/11/05 11:25:31;;;;;;;3.40;0.70;;;;;;;;;;5116237;28;20131;-64
2021/11/05 11:27:57;;;;;;;9.43;0.90;;;;;;;;;;5123321;27;20019;-61
2021/11/05 11:30:23;;;;;;;2.05;0.50;;;;;;;;;;5118096;27;20046;-62
2021/11/05 11:32:52;;;;;;;9.38;1.33;;;;;;;;;;5136911;27;20020;-62
2021/11/05 11:35:18;;;;;;;7.63;0.88;;;;;;;;;;5136530;27;20034;-63
2021/11/05 11:37:45;;;;;;;2.97;0.90;;;;;;;;;;5118212;27;20104;-63
2021/11/05 11:40:11;;;;;;;3.42;0.63;;;;;;;;;;5130179;27;20165;-62
2021/11/05 11:42:38;;;;;;;5.60;1.17;;;;;;;;;;5142723;27;20034;-62
2021/11/05 11:45:11;;;;;;;6.47;0.82;;;;;;;;;;5138584;27;20056;-62
2021/11/05 11:47:42;;;;;;;1.90;0.63;;;;;;;;;;5156946;27;20026;-63
2021/11/05 11:50:23;;;;;;;2.80;0.70;;;;;;;;;;5156942;27;20160;-62
2021/11/05 11:53:01;;;;;;;4.53;0.90;;;;;;;;;;5156808;27;20055;-61
2021/11/05 11:55:27;;;;;;;4.55;0.75;;;;;;;;;;5134188;27;20047;-61
2021/11/05 11:58:13;;;;;;;3.03;0.80;;;;;;;;;;5136241;27;20031;-61
2021/11/05 12:00:39;;;;;;;5.85;0.63;;;;;;;;;;5136084;27;20080;-62
2021/11/05 12:03:07;;;;;;;6.65;1.02;;;;;;;;;;5136051;27;20087;-62
2021/11/05 12:05:38;;;;;;;3.92;0.70;;;;;;;;;;5135896;27;20031;-62
2021/11/05 12:08:17;;;;;;;6.10;0.90;;;;;;;;;;5136003;27;20098;-62
2021/11/05 12:10:49;;;;;;;4.20;0.90;;;;;;;;;;5134962;27;20511;-64
2021/11/05 12:13:33;;;;;;;3.65;0.50;;;;;;;;;;5135693;27;20027;-62
2021/11/05 12:16:13;;;;;;;4.75;1.10;;;;;;;;;;5132816;27;20054;-62
2021/11/05 12:19:11;;;;;;;3.35;0.65;;;;;;;;;;5135115;27;20041;-62
2021/11/05 12:21:43;;;;;;;4.53;0.70;;;;;;;;;;5090498;27;20496;-63
2021/11/05 12:24:13;;;;;;;3.40;0.57;;;;;;;;;;5117167;27;20022;-62
2021/11/05 12:26:51;;;;;;;5.82;0.80;;;;;;;;;;5134892;27;20011;-62
2021/11/05 12:29:36;;;;;;;6.70;0.90;;;;;;;;;;5134022;27;20031;-62
2021/11/05 12:32:14;;;;;;;6.20;0.80;;;;;;;;;;5135534;27;20031;-62
2021/11/05 12:34:45;;;;;;;3.58;0.60;;;;;;;;;;5135419;27;20490;-63
2021/11/05 12:37:11;;;;;;;3.83;0.65;;;;;;;;;;5135551;27;20039;-66
2021/11/05 12:39:38;;;;;;;4.20;0.60;;;;;;;;;;5135197;27;20019;-65
2021/11/05 12:42:11;;;;;;;2.45;0.63;;;;;;;;;;5143694;27;20031;-66
2021/11/05 12:44:47;;;;;;;6.05;0.73;;;;;;;;;;5130034;27;20034;-64
2021/11/05 12:47:13;;;;;;;4.15;0.70;;;;;;;;;;5135301;27;20047;-61
2021/11/05 12:49:39;;;;;;;11.05;0.88;;;;;;;;;;5116777;27;20135;-65
2021/11/05 12:52:05;;;;;;;4.75;0.90;;;;;;;;;;5116141;27;20043;-65
2021/11/05 12:54:32;;;;;;;5.43;0.70;;;;;;;;;;5116202;27;20026;-65
2021/11/05 12:56:58;;;;;;;4.15;0.63;;;;;;;;;;5134823;27;20019;-65
2021/11/05 12:59:26;;;;;;;7.10;0.70;;;;;;;;;;5134626;27;20020;-64
2021/11/05 13:01:53;;;;;;;6.32;0.90;;;;;;;;;;5133858;27;20027;-65
2021/11/05 13:04:19;;;;;;;5.78;0.88;;;;;;;;;;5134955;27;20038;-65
2021/11/05 13:06:55;;;;;;;4.88;0.80;;;;;;;;;;5134962;27;20474;-65
2021/11/05 13:09:22;;;;;;;5.20;0.70;;;;;;;;;;5134643;27;20433;-65
2021/11/05 13:11:58;;;;;;;5.35;0.70;;;;;;;;;;5116344;27;20041;-65
2021/11/05 13:14:42;;;;;;;6.00;0.90;;;;;;;;;;5134667;27;20456;-65
2021/11/05 13:17:12;;;;;;;3.40;0.80;;;;;;;;;;5116377;27;20110;-66
2021/11/05 13:19:43;;;;;;;11.40;0.73;;;;;;;;;;5133376;27;20047;-66
2021/11/05 13:22:09;;;;;;;8.75;0.73;;;;;;;;;;5134638;27;20019;-66
2021/11/05 13:24:35;;;;;;;8.07;0.98;;;;;;;;;;5116172;27;20038;-66
2021/11/05 13:27:05;;;;;;;5.40;0.90;;;;;;;;;;5134573;27;20084;-66
2021/11/05 13:29:31;;;;;;;3.47;0.90;;;;;;;;;;5134419;27;20031;-66
2021/11/05 13:32:35;;;;;;;5.15;1.33;;;;;;;;;;5134259;27;20041;-66
2021/11/05 13:35:01;;;;;;;5.47;0.95;;;;;;;;;;5069588;28;20028;-66
2021/11/05 13:37:28;;;;;;;5.03;0.90;;;;;;;;;;5069992;28;20039;-66
2021/11/05 13:39:54;;;;;;;4.93;0.80;;;;;;;;;;5090864;28;20042;-66
2021/11/05 13:42:22;;;;;;;3.38;0.60;;;;;;;;;;5135112;27;20023;-66
2021/11/05 13:45:00;;;;;;;4.80;0.70;;;;;;;;;;5154672;27;20482;-66
2021/11/05 13:47:26;;;;;;;4.60;0.68;;;;;;;;;;5136287;27;20046;-65
2021/11/05 13:49:59;;;;;;;5.22;1.08;;;;;;;;;;5155020;27;20062;-66
2021/11/05 13:52:25;;;;;;;2.58;0.60;;;;;;;;;;5134999;27;20134;-66
2021/11/05 13:54:51;;;;;;;3.75;0.80;;;;;;;;;;5134040;27;20121;-66
2021/11/05 13:57:18;;;;;;;3.78;0.60;;;;;;;;;;5133726;27;20023;-66
2021/11/05 13:59:48;;;;;;;5.97;0.75;;;;;;;;;;5115423;27;20023;-66
2021/11/05 14:02:14;;;;;;;4.07;0.80;;;;;;;;;;5134110;27;20050;-66
2021/11/05 14:04:41;;;;;;;3.92;0.70;;;;;;;;;;5133894;27;20031;-66
2021/11/05 14:07:11;;;;;;;3.60;0.77;;;;;;;;;;5125125;27;20032;-66
2021/11/05 14:09:37;;;;;;;1.77;0.60;;;;;;;;;;5113148;28;20445;-66
2021/11/05 14:12:04;;;;;;;3.75;0.50;;;;;;;;;;5113030;28;20050;-66
2021/11/05 14:14:31;;;;;;;2.83;0.80;;;;;;;;;;5113772;27;20532;-67
2021/11/05 14:16:59;;;;;;;8.13;0.73;;;;;;;;;;5133384;27;20055;-65
2021/11/05 14:19:26;;;;;;;5.07;0.93;;;;;;;;;;5133226;27;20092;-64
2021/11/05 14:21:58;;;;;;;5.30;0.90;;;;;;;;;;5114975;28;20035;-64
2021/11/05 14:24:24;;;;;;;6.97;1.05;;;;;;;;;;5132263;27;20478;-64
2021/11/05 14:27:09;;;;;;;3.03;0.55;;;;;;;;;;5133538;27;20027;-64
2021/11/05 14:29:36;;;;;;;2.92;0.60;;;;;;;;;;5133320;27;20446;-64
2021/11/05 14:32:03;;;;;;;4.70;0.80;;;;;;;;;;5133179;27;20035;-66
2021/11/05 14:34:31;;;;;;;1.73;0.68;;;;;;;;;;5133390;27;20030;-65
2021/11/05 14:37:05;;;;;;;4.05;0.75;;;;;;;;;;5133388;27;20355;-64
2021/11/05 14:39:52;;;;;;;4.45;0.70;;;;;;;;;;5125463;27;20019;-64